sensor_id;sensor_type;location;lat;lon;timestamp;pressure;altitude;pressure_sealevel;temperature;humidity
76847;BME280;65813;49.546;8.644;2024-02-26T04:48:05;98740.47;;;7.41;92.65
76847;BME280;65813;49.546;8.644;2024-02-26T04:52:06;98741.59;;;7.48;94.86
76847;BME280;65813;49.546;8.644;2024-02-26T04:56:06;98736.38;;;7.37;95.67
76847;BME280;65813;49.546;8.644;2024-02-26T05:00:07;98738.75;;;7.40;97.51
76847;BME280;65813;49.546;8.644;2024-02-26T05:04:08;98739.09;;;7.56;91.96
76847;BME280;65813;49.546;8.644;2024-02-26T05:08:08;98732.16;;;7.55;93.47
76847;BME280;65813;49.546;8.644;2024-02-26T05:12:09;98722.06;;;7.49;94.75
76847;BME280;65813;49.546;8.644;2024-02-26T05:16:10;98727.63;;;7.46;95.41
76847;BME280;65813;49.546;8.644;2024-02-26T05:20:10;98727.09;;;7.52;94.51
76847;BME280;65813;49.546;8.644;2024-02-26T05:24:10;98728.97;;;7.31;96.13
76847;BME280;65813;49.546;8.644;2024-02-26T05:28:11;98723.22;;;7.26;96.63
76847;BME280;65813;49.546;8.644;2024-02-26T05:32:11;98732.41;;;7.22;97.18
76847;BME280;65813;49.546;8.644;2024-02-26T05:36:18;98726.81;;;7.15;99.08
76847;BME280;65813;49.546;8.644;2024-02-26T05:40:18;98728.91;;;7.21;97.86
76847;BME280;65813;49.546;8.644;2024-02-26T05:44:20;98745.66;;;7.22;98.56
76847;BME280;65813;49.546;8.644;2024-02-26T05:48:21;98748.75;;;7.27;96.92
76847;BME280;65813;49.546;8.644;2024-02-26T05:52:21;98746.97;;;7.37;96.96
76847;BME280;65813;49.546;8.644;2024-02-26T05:56:22;98752.94;;;7.29;97.37
76847;BME280;65813;49.546;8.644;2024-02-26T06:00:22;98752.25;;;7.27;97.69
76847;BME280;65813;49.546;8.644;2024-02-26T06:04:22;98759.25;;;7.17;99.59
76847;BME280;65813;49.546;8.644;2024-02-26T06:08:23;98761.22;;;7.15;100.00
76847;BME280;65813;49.546;8.644;2024-02-26T06:12:23;98768.16;;;7.06;100.00
76847;BME280;65813;49.546;8.644;2024-02-26T06:16:23;98773.44;;;7.06;100.00
76847;BME280;65813;49.546;8.644;2024-02-26T06:20:24;98786.47;;;6.98;100.00
76847;BME280;65813;49.546;8.644;2024-02-26T06:24:24;98798.44;;;7.14;100.00
76847;BME280;65813;49.546;8.644;2024-02-26T06:28:24;98804.97;;;7.09;100.00
76847;BME280;65813;49.546;8.644;2024-02-26T06:32:25;98805.66;;;7.11;100.00
76847;BME280;65813;49.546;8.644;2024-02-26T06:36:29;98824.66;;;7.17;100.00
76847;BME280;65813;49.546;8.644;2024-02-26T06:40:31;98825.34;;;7.39;99.07
76847;BME280;65813;49.546;8.644;2024-02-26T06:44:31;98835.84;;;7.50;97.20
76847;BME280;65813;49.546;8.644;2024-02-26T06:48:32;98841.84;;;7.52;98.31
76847;BME280;65813;49.546;8.644;2024-02-26T06:52:32;98847.91;;;7.64;97.45
76847;BME280;65813;49.546;8.644;2024-02-26T06:56:33;98863.44;;;7.69;96.09
76847;BME280;65813;49.546;8.644;2024-02-26T07:00:33;98868.84;;;7.67;96.38
76847;BME280;65813;49.546;8.644;2024-02-26T07:04:34;98870.59;;;7.78;95.37
76847;BME280;65813;49.546;8.644;2024-02-26T07:08:34;98874.59;;;7.72;96.46
76847;BME280;65813;49.546;8.644;2024-02-26T07:12:35;98867.47;;;7.73;96.61
76847;BME280;65813;49.546;8.644;2024-02-26T07:16:35;98866.69;;;7.82;95.53
76847;BME280;65813;49.546;8.644;2024-02-26T07:20:35;98865.59;;;7.84;96.04
76847;BME280;65813;49.546;8.644;2024-02-26T07:24:36;98866.13;;;7.78;95.58
76847;BME280;65813;49.546;8.644;2024-02-26T07:28:37;98874.00;;;7.89;95.58
76847;BME280;65813;49.546;8.644;2024-02-26T07:32:38;98879.88;;;7.93;95.07
76847;BME280;65813;49.546;8.644;2024-02-26T07:36:39;98886.97;;;7.92;95.24
76847;BME280;65813;49.546;8.644;2024-02-26T07:40:40;98891.56;;;7.90;94.97
76847;BME280;65813;49.546;8.644;2024-02-26T07:44:40;98896.84;;;7.90;94.31
76847;BME280;65813;49.546;8.644;2024-02-26T07:48:43;98892.97;;;7.94;91.99
76847;BME280;65813;49.546;8.644;2024-02-26T07:52:43;98893.28;;;8.01;91.22
76847;BME280;65813;49.546;8.644;2024-02-26T07:56:44;98894.41;;;7.98;91.28
76847;BME280;65813;49.546;8.644;2024-02-26T08:00:45;98889.94;;;7.99;92.19
76847;BME280;65813;49.546;8.644;2024-02-26T08:04:46;98886.72;;;7.95;95.04
76847;BME280;65813;49.546;8.644;2024-02-26T08:08:47;98887.94;;;7.91;96.56
76847;BME280;65813;49.546;8.644;2024-02-26T08:12:47;98887.94;;;7.91;97.97
76847;BME280;65813;49.546;8.644;2024-02-26T08:16:47;98897.69;;;7.91;99.30
76847;BME280;65813;49.546;8.644;2024-02-26T08:20:49;98900.66;;;7.97;98.38
76847;BME280;65813;49.546;8.644;2024-02-26T08:24:51;98898.28;;;7.94;98.89
76847;BME280;65813;49.546;8.644;2024-02-26T08:28:52;98889.78;;;8.00;98.74
76847;BME280;65813;49.546;8.644;2024-02-26T08:32:52;98899.16;;;8.04;100.00
76847;BME280;65813;49.546;8.644;2024-02-26T08:36:52;98903.91;;;8.10;99.11
76847;BME280;65813;49.546;8.644;2024-02-26T08:40:53;98902.41;;;8.18;99.40
76847;BME280;65813;49.546;8.644;2024-02-26T08:44:53;98900.06;;;8.24;98.60
76847;BME280;65813;49.546;8.644;2024-02-26T08:48:54;98910.50;;;8.37;98.23
76847;BME280;65813;49.546;8.644;2024-02-26T08:52:55;98904.94;;;8.59;95.85
76847;BME280;65813;49.546;8.644;2024-02-26T08:56:55;98900.94;;;8.65;91.76
76847;BME280;65813;49.546;8.644;2024-02-26T09:00:55;98910.28;;;8.69;91.67
76847;BME280;65813;49.546;8.644;2024-02-26T09:04:56;98898.28;;;8.74;90.84
76847;BME280;65813;49.546;8.644;2024-02-26T09:08:57;98909.47;;;8.78;89.18
76847;BME280;65813;49.546;8.644;2024-02-26T09:12:57;98905.97;;;8.77;89.14
76847;BME280;65813;49.546;8.644;2024-02-26T09:16:57;98909.63;;;8.95;87.84
76847;BME280;65813;49.546;8.644;2024-02-26T09:20:58;98916.75;;;8.95;89.08
76847;BME280;65813;49.546;8.644;2024-02-26T09:24:58;98914.09;;;8.95;88.59
76847;BME280;65813;49.546;8.644;2024-02-26T09:28:58;98915.34;;;9.00;90.04
76847;BME280;65813;49.546;8.644;2024-02-26T09:32:59;98922.06;;;8.85;89.71
76847;BME280;65813;49.546;8.644;2024-02-26T09:37:00;98924.56;;;8.96;89.76
76847;BME280;65813;49.546;8.644;2024-02-26T09:41:01;98934.66;;;9.02;87.82
76847;BME280;65813;49.546;8.644;2024-02-26T09:45:05;98947.22;;;9.00;87.23
76847;BME280;65813;49.546;8.644;2024-02-26T09:49:08;98945.97;;;9.04;86.19
76847;BME280;65813;49.546;8.644;2024-02-26T09:53:11;98953.09;;;9.04;83.85
76847;BME280;65813;49.546;8.644;2024-02-26T09:57:15;98944.72;;;9.08;83.37
76847;BME280;65813;49.546;8.644;2024-02-26T10:01:18;98941.50;;;9.05;83.54
76847;BME280;65813;49.546;8.644;2024-02-26T10:05:18;98950.47;;;9.13;84.67
76847;BME280;65813;49.546;8.644;2024-02-26T10:09:24;98950.59;;;9.22;85.31
76847;BME280;65813;49.546;8.644;2024-02-26T10:13:24;98939.97;;;9.22;84.65
76847;BME280;65813;49.546;8.644;2024-02-26T10:17:26;98942.78;;;9.30;84.94
76847;BME280;65813;49.546;8.644;2024-02-26T10:21:26;98949.31;;;9.45;83.84
76847;BME280;65813;49.546;8.644;2024-02-26T10:25:27;98946.09;;;9.60;85.63
76847;BME280;65813;49.546;8.644;2024-02-26T10:29:28;98943.84;;;9.75;86.51
76847;BME280;65813;49.546;8.644;2024-02-26T10:33:29;98951.97;;;9.74;84.43
76847;BME280;65813;49.546;8.644;2024-02-26T10:37:29;98951.94;;;9.83;83.55
76847;BME280;65813;49.546;8.644;2024-02-26T10:41:34;98957.69;;;9.88;84.45
76847;BME280;65813;49.546;8.644;2024-02-26T10:45:34;98959.72;;;10.04;82.64
76847;BME280;65813;49.546;8.644;2024-02-26T10:49:35;98965.88;;;10.14;81.92
76847;BME280;65813;49.546;8.644;2024-02-26T10:53:36;98972.00;;;10.24;81.84
76847;BME280;65813;49.546;8.644;2024-02-26T10:57:39;98945.03;;;10.46;81.38
76847;BME280;65813;49.546;8.644;2024-02-26T11:01:40;98953.63;;;10.68;80.58
76847;BME280;65813;49.546;8.644;2024-02-26T11:05:41;98957.22;;;10.76;78.51
76847;BME280;65813;49.546;8.644;2024-02-26T11:09:43;98968.22;;;10.91;79.87
76847;BME280;65813;49.546;8.644;2024-02-26T11:13:48;98972.16;;;10.87;79.85
76847;BME280;65813;49.546;8.644;2024-02-26T11:17:52;98983.00;;;10.76;79.05
76847;BME280;65813;49.546;8.644;2024-02-26T11:21:53;98982.75;;;10.69;80.91
76847;BME280;65813;49.546;8.644;2024-02-26T11:25:55;98987.53;;;10.75;80.60
76847;BME280;65813;49.546;8.644;2024-02-26T11:29:59;98989.41;;;10.83;81.08
76847;BME280;65813;49.546;8.644;2024-02-26T11:34:01;98990.66;;;10.88;80.50
76847;BME280;65813;49.546;8.644;2024-02-26T11:38:03;98986.78;;;11.00;77.21
76847;BME280;65813;49.546;8.644;2024-02-26T11:42:06;98976.97;;;11.01;78.97
76847;BME280;65813;49.546;8.644;2024-02-26T11:46:33;98981.50;;;11.18;78.53
76847;BME280;65813;49.546;8.644;2024-02-26T11:50:40;98983.50;;;11.34;78.24
76847;BME280;65813;49.546;8.644;2024-02-26T11:54:48;98986.22;;;11.42;76.19
76847;BME280;65813;49.546;8.644;2024-02-26T11:58:53;98987.19;;;11.58;76.50
76847;BME280;65813;49.546;8.644;2024-02-26T12:02:55;98983.34;;;11.71;75.85
76847;BME280;65813;49.546;8.644;2024-02-26T12:07:02;98988.88;;;11.59;76.09
76847;BME280;65813;49.546;8.644;2024-02-26T12:11:03;98986.31;;;11.68;74.77
76847;BME280;65813;49.546;8.644;2024-02-26T12:15:04;98992.63;;;11.66;75.29
76847;BME280;65813;49.546;8.644;2024-02-26T12:19:06;98998.50;;;11.70;77.17
76847;BME280;65813;49.546;8.644;2024-02-26T12:23:07;98989.03;;;11.93;78.84
76847;BME280;65813;49.546;8.644;2024-02-26T12:27:07;98995.25;;;12.20;76.98
76847;BME280;65813;49.546;8.644;2024-02-26T12:31:07;99005.09;;;12.79;73.57
76847;BME280;65813;49.546;8.644;2024-02-26T12:35:08;98998.34;;;13.08;72.36
76847;BME280;65813;49.546;8.644;2024-02-26T12:39:09;99011.25;;;12.79;73.30
76847;BME280;65813;49.546;8.644;2024-02-26T12:43:12;99006.63;;;12.55;74.10
76847;BME280;65813;49.546;8.644;2024-02-26T12:47:13;99019.44;;;12.44;75.45
76847;BME280;65813;49.546;8.644;2024-02-26T12:51:17;99016.75;;;12.44;75.81
76847;BME280;65813;49.546;8.644;2024-02-26T12:55:20;99004.28;;;12.27;74.14
76847;BME280;65813;49.546;8.644;2024-02-26T12:59:21;99003.13;;;12.29;73.83
76847;BME280;65813;49.546;8.644;2024-02-26T13:03:22;99004.97;;;12.54;74.27
76847;BME280;65813;49.546;8.644;2024-02-26T13:07:23;99011.03;;;13.06;72.87
76847;BME280;65813;49.546;8.644;2024-02-26T13:11:24;99013.81;;;13.55;69.65
76847;BME280;65813;49.546;8.644;2024-02-26T13:15:25;99029.38;;;13.01;67.55
76847;BME280;65813;49.546;8.644;2024-02-26T13:19:26;99031.88;;;12.95;69.29
76847;BME280;65813;49.546;8.644;2024-02-26T13:23:27;99029.22;;;12.69;70.08
76847;BME280;65813;49.546;8.644;2024-02-26T13:27:28;99031.47;;;12.82;69.35
76847;BME280;65813;49.546;8.644;2024-02-26T13:31:29;99035.53;;;12.94;67.05
76847;BME280;65813;49.546;8.644;2024-02-26T13:35:29;99039.22;;;12.93;69.61
76847;BME280;65813;49.546;8.644;2024-02-26T13:39:30;99038.00;;;12.87;67.57
76847;BME280;65813;49.546;8.644;2024-02-26T13:43:30;99046.59;;;12.65;67.55
76847;BME280;65813;49.546;8.644;2024-02-26T13:47:30;99049.63;;;12.70;68.31
76847;BME280;65813;49.546;8.644;2024-02-26T13:51:31;99044.84;;;12.90;67.90
76847;BME280;65813;49.546;8.644;2024-02-26T13:55:35;99055.59;;;12.98;65.97
76847;BME280;65813;49.546;8.644;2024-02-26T13:59:36;99050.53;;;12.87;65.34
76847;BME280;65813;49.546;8.644;2024-02-26T14:03:37;99053.69;;;12.82;63.71
76847;BME280;65813;49.546;8.644;2024-02-26T14:07:37;99054.31;;;12.76;64.84
76847;BME280;65813;49.546;8.644;2024-02-26T14:11:37;99041.84;;;12.85;65.23
76847;BME280;65813;49.546;8.644;2024-02-26T14:15:39;99046.31;;;12.76;66.46
76847;BME280;65813;49.546;8.644;2024-02-26T14:19:41;99060.19;;;12.80;65.51
76847;BME280;65813;49.546;8.644;2024-02-26T14:23:44;99068.72;;;12.83;67.04
76847;BME280;65813;49.546;8.644;2024-02-26T14:27:45;99070.03;;;12.79;66.25
76847;BME280;65813;49.546;8.644;2024-02-26T14:31:46;99065.72;;;12.86;66.36
76847;BME280;65813;49.546;8.644;2024-02-26T14:35:46;99071.44;;;12.91;64.03
76847;BME280;65813;49.546;8.644;2024-02-26T14:39:46;99071.75;;;12.88;65.99
76847;BME280;65813;49.546;8.644;2024-02-26T14:43:48;99075.47;;;12.95;65.20
76847;BME280;65813;49.546;8.644;2024-02-26T14:47:51;99072.81;;;13.03;65.47
76847;BME280;65813;49.546;8.644;2024-02-26T14:51:51;99072.94;;;13.20;64.91
76847;BME280;65813;49.546;8.644;2024-02-26T14:55:52;99053.84;;;13.14;65.76
76847;BME280;65813;49.546;8.644;2024-02-26T14:59:52;99056.53;;;13.14;63.70
76847;BME280;65813;49.546;8.644;2024-02-26T15:03:53;99054.94;;;13.04;64.22
76847;BME280;65813;49.546;8.644;2024-02-26T15:07:53;99057.94;;;12.93;64.47
76847;BME280;65813;49.546;8.644;2024-02-26T15:11:53;99065.09;;;12.92;66.67
76847;BME280;65813;49.546;8.644;2024-02-26T15:15:54;99076.13;;;12.97;68.66
76847;BME280;65813;49.546;8.644;2024-02-26T15:19:54;99067.81;;;13.00;68.04
76847;BME280;65813;49.546;8.644;2024-02-26T15:23:57;99073.19;;;13.08;67.09
76847;BME280;65813;49.546;8.644;2024-02-26T15:27:57;99061.75;;;12.90;67.46
76847;BME280;65813;49.546;8.644;2024-02-26T15:31:57;99071.56;;;12.82;67.29
76847;BME280;65813;49.546;8.644;2024-02-26T15:35:58;99082.91;;;12.84;66.54
76847;BME280;65813;49.546;8.644;2024-02-26T15:39:58;99081.22;;;12.75;66.65
76847;BME280;65813;49.546;8.644;2024-02-26T15:43:58;99099.06;;;12.74;66.39
76847;BME280;65813;49.546;8.644;2024-02-26T15:48:00;99104.03;;;12.69;67.21
76847;BME280;65813;49.546;8.644;2024-02-26T15:52:00;99107.66;;;12.60;67.41
76847;BME280;65813;49.546;8.644;2024-02-26T15:56:01;99112.13;;;12.51;68.45
76847;BME280;65813;49.546;8.644;2024-02-26T16:00:01;99129.28;;;12.49;69.33
76847;BME280;65813;49.546;8.644;2024-02-26T16:04:05;99132.59;;;12.43;70.38
76847;BME280;65813;49.546;8.644;2024-02-26T16:08:10;99138.97;;;12.50;69.21
76847;BME280;65813;49.546;8.644;2024-02-26T16:12:24;99132.97;;;12.48;68.11
76847;BME280;65813;49.546;8.644;2024-02-26T16:16:28;99133.56;;;12.42;70.17
76847;BME280;65813;49.546;8.644;2024-02-26T16:20:32;99133.84;;;12.31;71.78
76847;BME280;65813;49.546;8.644;2024-02-26T16:24:33;99137.41;;;12.39;69.63
76847;BME280;65813;49.546;8.644;2024-02-26T16:28:33;99146.91;;;12.42;69.82
76847;BME280;65813;49.546;8.644;2024-02-26T16:32:34;99156.63;;;12.43;68.02
76847;BME280;65813;49.546;8.644;2024-02-26T16:36:34;99171.66;;;12.44;68.12
76847;BME280;65813;49.546;8.644;2024-02-26T16:40:35;99176.38;;;12.32;68.40
76847;BME280;65813;49.546;8.644;2024-02-26T16:44:38;99176.63;;;12.21;69.21
76847;BME280;65813;49.546;8.644;2024-02-26T16:48:38;99183.94;;;12.01;69.91
76847;BME280;65813;49.546;8.644;2024-02-26T16:52:38;99193.09;;;11.99;68.64
76847;BME280;65813;49.546;8.644;2024-02-26T16:56:39;99207.69;;;11.77;69.54
76847;BME280;65813;49.546;8.644;2024-02-26T17:00:40;99211.78;;;11.72;70.04
76847;BME280;65813;49.546;8.644;2024-02-26T17:04:40;99216.56;;;11.68;70.59
76847;BME280;65813;49.546;8.644;2024-02-26T17:08:40;99223.84;;;11.66;69.61
76847;BME280;65813;49.546;8.644;2024-02-26T17:12:42;99230.31;;;11.63;69.44
76847;BME280;65813;49.546;8.644;2024-02-26T17:16:43;99232.03;;;11.55;69.39
76847;BME280;65813;49.546;8.644;2024-02-26T17:20:44;99242.44;;;11.48;70.33
76847;BME280;65813;49.546;8.644;2024-02-26T17:24:44;99239.25;;;11.45;71.55
76847;BME280;65813;49.546;8.644;2024-02-26T17:28:47;99252.72;;;11.43;71.19
76847;BME280;65813;49.546;8.644;2024-02-26T17:32:50;99263.88;;;11.29;72.47
76847;BME280;65813;49.546;8.644;2024-02-26T17:36:51;99263.06;;;11.19;71.99
76847;BME280;65813;49.546;8.644;2024-02-26T17:40:53;99281.00;;;11.17;72.55
76847;BME280;65813;49.546;8.644;2024-02-26T17:44:54;99291.81;;;11.15;71.99
76847;BME280;65813;49.546;8.644;2024-02-26T17:48:54;99299.41;;;11.01;73.44
76847;BME280;65813;49.546;8.644;2024-02-26T17:52:55;99304.06;;;10.89;74.39
76847;BME280;65813;49.546;8.644;2024-02-26T17:56:57;99307.13;;;10.94;72.61
76847;BME280;65813;49.546;8.644;2024-02-26T18:00:58;99313.59;;;10.92;72.88
76847;BME280;65813;49.546;8.644;2024-02-26T18:04:59;99325.50;;;10.97;72.78
76847;BME280;65813;49.546;8.644;2024-02-26T18:09:00;99327.88;;;10.81;72.48
76847;BME280;65813;49.546;8.644;2024-02-26T18:13:00;99331.81;;;10.68;74.40
76847;BME280;65813;49.546;8.644;2024-02-26T18:17:00;99332.94;;;10.65;72.50
76847;BME280;65813;49.546;8.644;2024-02-26T18:21:01;99338.94;;;10.57;74.38
76847;BME280;65813;49.546;8.644;2024-02-26T18:25:01;99354.75;;;10.49;74.86
76847;BME280;65813;49.546;8.644;2024-02-26T18:29:02;99350.97;;;10.42;74.64
76847;BME280;65813;49.546;8.644;2024-02-26T18:33:04;99358.56;;;10.47;75.59
76847;BME280;65813;49.546;8.644;2024-02-26T18:37:05;99365.13;;;10.43;74.37
76847;BME280;65813;49.546;8.644;2024-02-26T18:41:07;99379.97;;;10.45;73.52
76847;BME280;65813;49.546;8.644;2024-02-26T18:45:09;99371.84;;;10.37;74.39
76847;BME280;65813;49.546;8.644;2024-02-26T18:49:12;99385.56;;;10.33;74.29
76847;BME280;65813;49.546;8.644;2024-02-26T18:53:13;99396.78;;;10.36;74.50
76847;BME280;65813;49.546;8.644;2024-02-26T18:57:13;99399.81;;;10.22;74.96
76847;BME280;65813;49.546;8.644;2024-02-26T19:01:14;99407.09;;;10.20;75.11
76847;BME280;65813;49.546;8.644;2024-02-26T19:05:14;99420.06;;;10.13;75.31
76847;BME280;65813;49.546;8.644;2024-02-26T19:09:14;99423.75;;;10.22;76.12
76847;BME280;65813;49.546;8.644;2024-02-26T19:13:15;99422.72;;;10.13;75.23
76847;BME280;65813;49.546;8.644;2024-02-26T19:17:15;99436.16;;;10.12;75.05
76847;BME280;65813;49.546;8.644;2024-02-26T19:21:16;99440.69;;;10.21;77.33
76847;BME280;65813;49.546;8.644;2024-02-26T19:25:17;99449.22;;;10.15;75.59
76847;BME280;65813;49.546;8.644;2024-02-26T19:29:17;99449.97;;;10.27;75.63
76847;BME280;65813;49.546;8.644;2024-02-26T19:33:18;99450.13;;;10.35;74.94
76847;BME280;65813;49.546;8.644;2024-02-26T19:37:20;99451.63;;;10.28;73.16
76847;BME280;65813;49.546;8.644;2024-02-26T19:41:21;99463.09;;;10.19;73.98
76847;BME280;65813;49.546;8.644;2024-02-26T19:45:21;99471.41;;;10.04;74.32
76847;BME280;65813;49.546;8.644;2024-02-26T19:49:22;99477.25;;;9.98;74.74
76847;BME280;65813;49.546;8.644;2024-02-26T19:53:22;99482.19;;;10.03;75.15
76847;BME280;65813;49.546;8.644;2024-02-26T19:57:23;99490.94;;;9.94;74.85
76847;BME280;65813;49.546;8.644;2024-02-26T20:01:23;99490.94;;;9.94;75.02
76847;BME280;65813;49.546;8.644;2024-02-26T20:05:24;99502.56;;;9.93;76.02
76847;BME280;65813;49.546;8.644;2024-02-26T20:09:26;99515.88;;;9.93;76.41
76847;BME280;65813;49.546;8.644;2024-02-26T20:13:31;99521.88;;;9.95;78.10
76847;BME280;65813;49.546;8.644;2024-02-26T20:17:32;99523.00;;;9.92;78.69
76847;BME280;65813;49.546;8.644;2024-02-26T20:21:32;99529.50;;;9.99;77.92
76847;BME280;65813;49.546;8.644;2024-02-26T20:25:33;99536.38;;;10.02;78.06
76847;BME280;65813;49.546;8.644;2024-02-26T20:29:35;99545.88;;;10.16;77.80
76847;BME280;65813;49.546;8.644;2024-02-26T20:33:37;99564.72;;;10.12;77.25
76847;BME280;65813;49.546;8.644;2024-02-26T20:37:41;99566.78;;;10.20;74.50
76847;BME280;65813;49.546;8.644;2024-02-26T20:41:43;99576.09;;;10.14;76.81
76847;BME280;65813;49.546;8.644;2024-02-26T20:45:43;99585.38;;;9.99;77.49
76847;BME280;65813;49.546;8.644;2024-02-26T20:49:49;99599.22;;;9.82;79.69
76847;BME280;65813;49.546;8.644;2024-02-26T20:53:49;99599.03;;;9.63;81.74
76847;BME280;65813;49.546;8.644;2024-02-26T20:57:50;99602.91;;;9.59;82.30
76847;BME280;65813;49.546;8.644;2024-02-26T21:01:50;99597.84;;;9.88;77.55
76847;BME280;65813;49.546;8.644;2024-02-26T21:05:52;99597.53;;;9.81;79.07
76847;BME280;65813;49.546;8.644;2024-02-26T21:09:52;99600.75;;;9.53;81.10
76847;BME280;65813;49.546;8.644;2024-02-26T21:13:54;99605.13;;;9.54;84.22
76847;BME280;65813;49.546;8.644;2024-02-26T21:17:55;99602.38;;;9.33;82.56
76847;BME280;65813;49.546;8.644;2024-02-26T21:21:55;99611.34;;;9.21;81.13
76847;BME280;65813;49.546;8.644;2024-02-26T21:25:56;99603.00;;;9.26;80.45
76847;BME280;65813;49.546;8.644;2024-02-26T21:29:56;99612.53;;;9.17;81.38
76847;BME280;65813;49.546;8.644;2024-02-26T21:33:56;99618.25;;;9.24;80.43
76847;BME280;65813;49.546;8.644;2024-02-26T21:37:57;99618.84;;;9.16;81.40
76847;BME280;65813;49.546;8.644;2024-02-26T21:41:57;99622.09;;;9.08;81.85
76847;BME280;65813;49.546;8.644;2024-02-26T21:45:57;99622.00;;;8.99;82.85
76847;BME280;65813;49.546;8.644;2024-02-26T21:49:58;99630.81;;;8.99;81.99
76847;BME280;65813;49.546;8.644;2024-02-26T21:53:58;99632.72;;;8.97;81.88
76847;BME280;65813;49.546;8.644;2024-02-26T21:57:58;99628.03;;;9.01;80.73
76847;BME280;65813;49.546;8.644;2024-02-26T22:01:59;99642.03;;;9.03;80.96
76847;BME280;65813;49.546;8.644;2024-02-26T22:06:01;99654.94;;;9.07;80.98
76847;BME280;65813;49.546;8.644;2024-02-26T22:10:03;99659.28;;;8.97;81.18
76847;BME280;65813;49.546;8.644;2024-02-26T22:14:04;99670.41;;;9.02;81.97
76847;BME280;65813;49.546;8.644;2024-02-26T22:18:04;99674.97;;;9.00;83.50
76847;BME280;65813;49.546;8.644;2024-02-26T22:22:05;99684.16;;;9.07;81.43
76847;BME280;65813;49.546;8.644;2024-02-26T22:26:06;99689.00;;;9.02;83.55
76847;BME280;65813;49.546;8.644;2024-02-26T22:30:06;99696.50;;;9.08;81.33
76847;BME280;65813;49.546;8.644;2024-02-26T22:34:07;99706.28;;;9.19;78.67
76847;BME280;65813;49.546;8.644;2024-02-26T22:38:08;99713.50;;;9.17;79.15
76847;BME280;65813;49.546;8.644;2024-02-26T22:42:08;99718.47;;;9.22;78.23
